sensor_id;sensor_type;location;lat;lon;timestamp;temperature;humidity
79049;DHT22;68680;50.764;6.120;2023-05-10T00:00:48;12.40;99.90
79049;DHT22;68680;50.764;6.120;2023-05-10T00:03:14;12.40;99.90
79049;DHT22;68680;50.764;6.120;2023-05-10T00:05:40;12.40;99.90
79049;DHT22;68680;50.764;6.120;2023-05-10T00:08:05;12.40;99.90
79049;DHT22;68680;50.764;6.120;2023-05-10T00:10:31;12.40;99.90
79049;DHT22;68680;50.764;6.120;2023-05-10T00:12:57;12.40;99.90
79049;DHT22;68680;50.764;6.120;2023-05-10T00:15:24;12.40;99.90
79049;DHT22;68680;50.764;6.120;2023-05-10T00:17:50;12.40;99.90
79049;DHT22;68680;50.764;6.120;2023-05-10T00:20:15;12.40;99.90
79049;DHT22;68680;50.764;6.120;2023-05-10T00:22:41;12.40;99.90
79049;DHT22;68680;50.764;6.120;2023-05-10T00:25:08;12.30;99.90
79049;DHT22;68680;50.764;6.120;2023-05-10T00:27:34;12.40;99.90
79049;DHT22;68680;50.764;6.120;2023-05-10T00:30:00;12.30;99.90
79049;DHT22;68680;50.764;6.120;2023-05-10T00:32:27;12.30;99.90
79049;DHT22;68680;50.764;6.120;2023-05-10T00:34:53;12.40;99.90
79049;DHT22;68680;50.764;6.120;2023-05-10T00:37:19;12.40;99.90
79049;DHT22;68680;50.764;6.120;2023-05-10T00:39:44;12.30;99.90
79049;DHT22;68680;50.764;6.120;2023-05-10T00:42:10;12.40;99.90
79049;DHT22;68680;50.764;6.120;2023-05-10T00:44:36;12.40;99.90
79049;DHT22;68680;50.764;6.120;2023-05-10T00:47:02;12.40;99.90
79049;DHT22;68680;50.764;6.120;2023-05-10T00:49:29;12.40;99.90
79049;DHT22;68680;50.764;6.120;2023-05-10T00:51:55;12.40;99.90
79049;DHT22;68680;50.764;6.120;2023-05-10T00:54:21;12.40;99.90
79049;DHT22;68680;50.764;6.120;2023-05-10T00:56:47;12.40;99.90
79049;DHT22;68680;50.764;6.120;2023-05-10T00:59:13;12.40;99.90
79049;DHT22;68680;50.764;6.120;2023-05-10T01:01:39;12.40;99.90
79049;DHT22;68680;50.764;6.120;2023-05-10T01:04:05;12.40;99.90
79049;DHT22;68680;50.764;6.120;2023-05-10T01:06:33;12.30;99.90
79049;DHT22;68680;50.764;6.120;2023-05-10T01:08:58;12.30;99.90
79049;DHT22;68680;50.764;6.120;2023-05-10T01:11:24;12.40;99.90
79049;DHT22;68680;50.764;6.120;2023-05-10T01:13:54;12.40;99.90
79049;DHT22;68680;50.764;6.120;2023-05-10T01:16:22;12.30;99.90
79049;DHT22;68680;50.764;6.120;2023-05-10T01:18:51;12.30;99.90
79049;DHT22;68680;50.764;6.120;2023-05-10T01:21:22;12.30;99.90
79049;DHT22;68680;50.764;6.120;2023-05-10T01:24:44;12.30;99.90
79049;DHT22;68680;50.764;6.120;2023-05-10T01:31:06;12.30;99.90
79049;DHT22;68680;50.764;6.120;2023-05-10T01:33:43;12.30;99.90
79049;DHT22;68680;50.764;6.120;2023-05-10T01:36:19;12.30;99.90
79049;DHT22;68680;50.764;6.120;2023-05-10T01:38:51;12.20;99.90
79049;DHT22;68680;50.764;6.120;2023-05-10T01:41:32;12.30;99.90
79049;DHT22;68680;50.764;6.120;2023-05-10T01:44:11;12.20;99.90
79049;DHT22;68680;50.764;6.120;2023-05-10T01:46:43;12.30;99.90
79049;DHT22;68680;50.764;6.120;2023-05-10T01:49:17;12.30;99.90
79049;DHT22;68680;50.764;6.120;2023-05-10T01:51:51;12.20;99.90
79049;DHT22;68680;50.764;6.120;2023-05-10T01:54:20;12.20;99.90
79049;DHT22;68680;50.764;6.120;2023-05-10T01:56:50;12.20;99.90
79049;DHT22;68680;50.764;6.120;2023-05-10T01:59:21;12.20;99.90
79049;DHT22;68680;50.764;6.120;2023-05-10T02:01:54;12.20;99.90
79049;DHT22;68680;50.764;6.120;2023-05-10T02:04:25;12.30;99.90
79049;DHT22;68680;50.764;6.120;2023-05-10T02:06:54;12.20;99.90
79049;DHT22;68680;50.764;6.120;2023-05-10T02:09:21;12.20;99.90
79049;DHT22;68680;50.764;6.120;2023-05-10T02:11:49;12.20;99.90
79049;DHT22;68680;50.764;6.120;2023-05-10T02:14:15;12.30;99.90
79049;DHT22;68680;50.764;6.120;2023-05-10T02:16:45;12.20;99.90
79049;DHT22;68680;50.764;6.120;2023-05-10T02:19:12;12.20;99.90
79049;DHT22;68680;50.764;6.120;2023-05-10T02:21:41;12.20;99.90
79049;DHT22;68680;50.764;6.120;2023-05-10T02:24:10;12.20;99.90
79049;DHT22;68680;50.764;6.120;2023-05-10T02:26:38;12.20;99.90
79049;DHT22;68680;50.764;6.120;2023-05-10T02:29:05;12.10;99.90
79049;DHT22;68680;50.764;6.120;2023-05-10T02:31:33;12.20;99.90
79049;DHT22;68680;50.764;6.120;2023-05-10T02:34:01;12.10;99.90
79049;DHT22;68680;50.764;6.120;2023-05-10T02:36:30;12.10;99.90
79049;DHT22;68680;50.764;6.120;2023-05-10T02:38:59;12.10;99.90
79049;DHT22;68680;50.764;6.120;2023-05-10T02:41:27;12.10;99.90
79049;DHT22;68680;50.764;6.120;2023-05-10T02:43:59;12.10;99.90
79049;DHT22;68680;50.764;6.120;2023-05-10T02:46:27;12.10;99.90
79049;DHT22;68680;50.764;6.120;2023-05-10T02:48:54;12.10;99.90
79049;DHT22;68680;50.764;6.120;2023-05-10T02:51:22;12.00;99.90
79049;DHT22;68680;50.764;6.120;2023-05-10T02:53:51;12.00;99.90
79049;DHT22;68680;50.764;6.120;2023-05-10T02:56:25;12.00;99.90
79049;DHT22;68680;50.764;6.120;2023-05-10T02:58:55;12.00;99.90
79049;DHT22;68680;50.764;6.120;2023-05-10T03:01:20;12.00;99.90
79049;DHT22;68680;50.764;6.120;2023-05-10T03:03:46;12.00;99.90
79049;DHT22;68680;50.764;6.120;2023-05-10T03:06:12;12.00;99.90
79049;DHT22;68680;50.764;6.120;2023-05-10T03:08:38;12.00;99.90
79049;DHT22;68680;50.764;6.120;2023-05-10T03:11:23;12.00;99.90
79049;DHT22;68680;50.764;6.120;2023-05-10T03:14:07;12.00;99.90
79049;DHT22;68680;50.764;6.120;2023-05-10T03:16:45;11.90;99.90
79049;DHT22;68680;50.764;6.120;2023-05-10T03:19:19;11.90;99.90
79049;DHT22;68680;50.764;6.120;2023-05-10T03:21:51;11.90;99.90
79049;DHT22;68680;50.764;6.120;2023-05-10T03:24:21;11.90;99.90
79049;DHT22;68680;50.764;6.120;2023-05-10T03:26:54;11.80;99.90
79049;DHT22;68680;50.764;6.120;2023-05-10T03:29:22;11.80;99.90
79049;DHT22;68680;50.764;6.120;2023-05-10T03:31:51;11.80;99.90
79049;DHT22;68680;50.764;6.120;2023-05-10T03:34:17;11.80;99.90
79049;DHT22;68680;50.764;6.120;2023-05-10T03:36:48;11.90;99.90
79049;DHT22;68680;50.764;6.120;2023-05-10T03:39:14;11.90;99.90
79049;DHT22;68680;50.764;6.120;2023-05-10T03:41:40;11.80;99.90
79049;DHT22;68680;50.764;6.120;2023-05-10T03:44:07;11.90;99.90
79049;DHT22;68680;50.764;6.120;2023-05-10T03:46:33;11.90;99.90
79049;DHT22;68680;50.764;6.120;2023-05-10T03:48:58;11.90;99.90
79049;DHT22;68680;50.764;6.120;2023-05-10T03:51:24;11.90;99.90
79049;DHT22;68680;50.764;6.120;2023-05-10T03:53:50;11.80;99.90
79049;DHT22;68680;50.764;6.120;2023-05-10T03:56:16;11.90;99.90
79049;DHT22;68680;50.764;6.120;2023-05-10T03:58:41;11.80;99.90
79049;DHT22;68680;50.764;6.120;2023-05-10T04:01:09;11.90;99.90
79049;DHT22;68680;50.764;6.120;2023-05-10T04:03:34;11.80;99.90
79049;DHT22;68680;50.764;6.120;2023-05-10T04:06:00;11.80;99.90
79049;DHT22;68680;50.764;6.120;2023-05-10T04:08:27;11.80;99.90
79049;DHT22;68680;50.764;6.120;2023-05-10T04:10:53;11.90;99.90
79049;DHT22;68680;50.764;6.120;2023-05-10T04:13:18;11.80;99.90
79049;DHT22;68680;50.764;6.120;2023-05-10T04:15:44;11.90;99.90
79049;DHT22;68680;50.764;6.120;2023-05-10T04:18:11;11.90;99.90
79049;DHT22;68680;50.764;6.120;2023-05-10T04:20:37;11.90;99.90
79049;DHT22;68680;50.764;6.120;2023-05-10T04:23:03;11.90;99.90
79049;DHT22;68680;50.764;6.120;2023-05-10T04:25:29;11.90;99.90
79049;DHT22;68680;50.764;6.120;2023-05-10T04:27:54;11.90;99.90
79049;DHT22;68680;50.764;6.120;2023-05-10T04:30:20;11.90;99.90
79049;DHT22;68680;50.764;6.120;2023-05-10T04:32:46;11.90;99.90
79049;DHT22;68680;50.764;6.120;2023-05-10T04:35:13;11.90;99.90
79049;DHT22;68680;50.764;6.120;2023-05-10T04:37:39;11.80;99.90
79049;DHT22;68680;50.764;6.120;2023-05-10T04:40:06;11.90;99.90
79049;DHT22;68680;50.764;6.120;2023-05-10T04:42:33;11.90;99.90
79049;DHT22;68680;50.764;6.120;2023-05-10T04:44:58;11.90;99.90
79049;DHT22;68680;50.764;6.120;2023-05-10T04:47:24;11.90;99.90
79049;DHT22;68680;50.764;6.120;2023-05-10T04:49:50;11.80;99.90
79049;DHT22;68680;50.764;6.120;2023-05-10T04:52:17;11.90;99.90
79049;DHT22;68680;50.764;6.120;2023-05-10T04:54:43;11.90;99.90
79049;DHT22;68680;50.764;6.120;2023-05-10T04:57:08;11.90;99.90
79049;DHT22;68680;50.764;6.120;2023-05-10T04:59:35;11.90;99.90
79049;DHT22;68680;50.764;6.120;2023-05-10T05:02:01;11.90;99.90
79049;DHT22;68680;50.764;6.120;2023-05-10T05:04:27;11.90;99.90
79049;DHT22;68680;50.764;6.120;2023-05-10T05:06:53;11.90;99.90
79049;DHT22;68680;50.764;6.120;2023-05-10T05:09:20;11.80;99.90
79049;DHT22;68680;50.764;6.120;2023-05-10T05:11:45;11.90;99.90
79049;DHT22;68680;50.764;6.120;2023-05-10T05:14:11;11.90;99.90
79049;DHT22;68680;50.764;6.120;2023-05-10T05:16:37;11.90;99.90
79049;DHT22;68680;50.764;6.120;2023-05-10T05:19:03;12.00;99.90
79049;DHT22;68680;50.764;6.120;2023-05-10T05:21:28;12.00;99.90
79049;DHT22;68680;50.764;6.120;2023-05-10T05:23:54;11.90;99.90
79049;DHT22;68680;50.764;6.120;2023-05-10T05:26:21;11.90;99.90
79049;DHT22;68680;50.764;6.120;2023-05-10T05:28:47;12.00;99.90
79049;DHT22;68680;50.764;6.120;2023-05-10T05:31:13;12.00;99.90
79049;DHT22;68680;50.764;6.120;2023-05-10T05:33:39;12.10;99.90
79049;DHT22;68680;50.764;6.120;2023-05-10T05:36:05;12.00;99.90
79049;DHT22;68680;50.764;6.120;2023-05-10T05:38:31;12.10;99.90
79049;DHT22;68680;50.764;6.120;2023-05-10T05:40:57;12.10;99.90
79049;DHT22;68680;50.764;6.120;2023-05-10T05:43:25;12.10;99.90
79049;DHT22;68680;50.764;6.120;2023-05-10T05:45:52;12.10;99.90
79049;DHT22;68680;50.764;6.120;2023-05-10T05:48:18;12.10;99.90
79049;DHT22;68680;50.764;6.120;2023-05-10T05:50:44;12.10;99.90
79049;DHT22;68680;50.764;6.120;2023-05-10T05:53:09;12.10;99.90
79049;DHT22;68680;50.764;6.120;2023-05-10T05:55:35;12.10;99.90
79049;DHT22;68680;50.764;6.120;2023-05-10T05:58:01;12.00;99.90
79049;DHT22;68680;50.764;6.120;2023-05-10T06:00:28;12.10;99.90
79049;DHT22;68680;50.764;6.120;2023-05-10T06:02:54;12.10;99.90
79049;DHT22;68680;50.764;6.120;2023-05-10T06:05:20;12.10;99.90
79049;DHT22;68680;50.764;6.120;2023-05-10T06:07:46;12.10;99.90
79049;DHT22;68680;50.764;6.120;2023-05-10T06:10:11;12.10;99.90
79049;DHT22;68680;50.764;6.120;2023-05-10T06:12:40;12.10;99.90
79049;DHT22;68680;50.764;6.120;2023-05-10T06:15:06;12.10;99.90
79049;DHT22;68680;50.764;6.120;2023-05-10T06:17:34;12.10;99.90
79049;DHT22;68680;50.764;6.120;2023-05-10T06:20:00;12.10;99.90
79049;DHT22;68680;50.764;6.120;2023-05-10T06:22:26;12.10;99.90
79049;DHT22;68680;50.764;6.120;2023-05-10T06:24:52;12.30;99.90
79049;DHT22;68680;50.764;6.120;2023-05-10T06:27:18;12.20;99.90
79049;DHT22;68680;50.764;6.120;2023-05-10T06:29:43;12.20;99.90
79049;DHT22;68680;50.764;6.120;2023-05-10T06:32:09;12.30;99.90
79049;DHT22;68680;50.764;6.120;2023-05-10T06:34:36;12.20;99.90
79049;DHT22;68680;50.764;6.120;2023-05-10T06:37:02;12.20;99.90
79049;DHT22;68680;50.764;6.120;2023-05-10T06:39:28;12.20;99.90
79049;DHT22;68680;50.764;6.120;2023-05-10T06:41:53;12.20;99.90
79049;DHT22;68680;50.764;6.120;2023-05-10T06:44:19;12.10;99.90
79049;DHT22;68680;50.764;6.120;2023-05-10T06:46:45;12.10;99.90
79049;DHT22;68680;50.764;6.120;2023-05-10T06:49:11;12.00;99.90
79049;DHT22;68680;50.764;6.120;2023-05-10T06:51:38;11.90;99.90
79049;DHT22;68680;50.764;6.120;2023-05-10T06:54:04;11.90;99.90
79049;DHT22;68680;50.764;6.120;2023-05-10T06:56:29;11.90;99.90
79049;DHT22;68680;50.764;6.120;2023-05-10T06:58:55;11.80;99.90
79049;DHT22;68680;50.764;6.120;2023-05-10T07:01:21;11.70;99.90
79049;DHT22;68680;50.764;6.120;2023-05-10T07:03:47;11.70;99.90
79049;DHT22;68680;50.764;6.120;2023-05-10T07:06:12;11.80;99.90
79049;DHT22;68680;50.764;6.120;2023-05-10T07:08:39;11.80;99.90
79049;DHT22;68680;50.764;6.120;2023-05-10T07:11:07;11.80;99.90
79049;DHT22;68680;50.764;6.120;2023-05-10T07:13:33;11.80;99.90
79049;DHT22;68680;50.764;6.120;2023-05-10T07:15:59;11.70;99.90
79049;DHT22;68680;50.764;6.120;2023-05-10T07:18:26;11.80;99.90
79049;DHT22;68680;50.764;6.120;2023-05-10T07:20:51;11.80;99.90
79049;DHT22;68680;50.764;6.120;2023-05-10T07:23:17;11.80;99.90
79049;DHT22;68680;50.764;6.120;2023-05-10T07:25:46;11.80;99.90
79049;DHT22;68680;50.764;6.120;2023-05-10T07:28:12;11.80;99.90
79049;DHT22;68680;50.764;6.120;2023-05-10T07:30:38;11.80;99.90
79049;DHT22;68680;50.764;6.120;2023-05-10T07:33:04;11.80;99.90
79049;DHT22;68680;50.764;6.120;2023-05-10T07:35:29;11.80;99.90
79049;DHT22;68680;50.764;6.120;2023-05-10T07:37:55;11.70;99.90
79049;DHT22;68680;50.764;6.120;2023-05-10T07:40:21;11.70;99.90
79049;DHT22;68680;50.764;6.120;2023-05-10T07:42:48;11.80;99.90
79049;DHT22;68680;50.764;6.120;2023-05-10T07:45:14;11.80;99.90
79049;DHT22;68680;50.764;6.120;2023-05-10T07:47:40;11.80;99.90
79049;DHT22;68680;50.764;6.120;2023-05-10T07:50:08;11.80;99.90
79049;DHT22;68680;50.764;6.120;2023-05-10T07:52:34;11.80;99.90
79049;DHT22;68680;50.764;6.120;2023-05-10T07:55:00;11.90;99.90
79049;DHT22;68680;50.764;6.120;2023-05-10T07:57:25;11.90;99.90
79049;DHT22;68680;50.764;6.120;2023-05-10T07:59:52;11.90;99.90
79049;DHT22;68680;50.764;6.120;2023-05-10T08:02:18;12.00;99.90
79049;DHT22;68680;50.764;6.120;2023-05-10T08:04:44;12.10;99.90
79049;DHT22;68680;50.764;6.120;2023-05-10T08:07:10;12.10;99.90
79049;DHT22;68680;50.764;6.120;2023-05-10T08:09:36;12.20;99.90
79049;DHT22;68680;50.764;6.120;2023-05-10T08:12:02;12.10;99.90
79049;DHT22;68680;50.764;6.120;2023-05-10T08:14:28;12.00;99.90
79049;DHT22;68680;50.764;6.120;2023-05-10T08:16:55;12.00;99.90
79049;DHT22;68680;50.764;6.120;2023-05-10T08:19:21;12.10;99.90
79049;DHT22;68680;50.764;6.120;2023-05-10T08:21:47;12.00;99.90
79049;DHT22;68680;50.764;6.120;2023-05-10T08:24:13;12.10;99.90
79049;DHT22;68680;50.764;6.120;2023-05-10T08:26:39;12.00;99.90
79049;DHT22;68680;50.764;6.120;2023-05-10T08:29:05;12.00;99.90
79049;DHT22;68680;50.764;6.120;2023-05-10T08:31:31;12.00;99.90
79049;DHT22;68680;50.764;6.120;2023-05-10T08:33:58;12.00;99.90
79049;DHT22;68680;50.764;6.120;2023-05-10T08:36:24;12.00;99.90
79049;DHT22;68680;50.764;6.120;2023-05-10T08:38:50;12.00;99.90
79049;DHT22;68680;50.764;6.120;2023-05-10T08:41:16;12.00;99.90
79049;DHT22;68680;50.764;6.120;2023-05-10T08:43:43;12.00;99.90
79049;DHT22;68680;50.764;6.120;2023-05-10T08:46:10;11.90;99.90
79049;DHT22;68680;50.764;6.120;2023-05-10T08:48:37;12.00;99.90
79049;DHT22;68680;50.764;6.120;2023-05-10T08:51:06;11.90;99.90
79049;DHT22;68680;50.764;6.120;2023-05-10T08:53:35;11.90;99.90
79049;DHT22;68680;50.764;6.120;2023-05-10T08:56:02;12.00;99.90
79049;DHT22;68680;50.764;6.120;2023-05-10T08:58:29;12.00;99.90
79049;DHT22;68680;50.764;6.120;2023-05-10T09:00:56;12.10;99.90
79049;DHT22;68680;50.764;6.120;2023-05-10T09:03:22;12.10;99.90
79049;DHT22;68680;50.764;6.120;2023-05-10T09:05:48;12.10;99.90
79049;DHT22;68680;50.764;6.120;2023-05-10T09:08:16;12.10;99.90
79049;DHT22;68680;50.764;6.120;2023-05-10T09:10:43;12.10;99.90
79049;DHT22;68680;50.764;6.120;2023-05-10T09:13:10;12.10;99.90
79049;DHT22;68680;50.764;6.120;2023-05-10T09:15:36;12.10;99.90
79049;DHT22;68680;50.764;6.120;2023-05-10T09:18:02;12.10;99.90
79049;DHT22;68680;50.764;6.120;2023-05-10T09:20:28;12.00;99.90
79049;DHT22;68680;50.764;6.120;2023-05-10T09:22:54;12.00;99.90
79049;DHT22;68680;50.764;6.120;2023-05-10T09:25:21;12.10;99.90
79049;DHT22;68680;50.764;6.120;2023-05-10T09:27:48;12.10;99.90
79049;DHT22;68680;50.764;6.120;2023-05-10T09:30:15;12.10;99.90
79049;DHT22;68680;50.764;6.120;2023-05-10T09:32:44;12.00;99.90
79049;DHT22;68680;50.764;6.120;2023-05-10T09:35:13;12.10;99.90
79049;DHT22;68680;50.764;6.120;2023-05-10T09:37:40;12.10;99.90
79049;DHT22;68680;50.764;6.120;2023-05-10T09:40:08;12.20;99.90
79049;DHT22;68680;50.764;6.120;2023-05-10T09:42:38;12.40;99.90
79049;DHT22;68680;50.764;6.120;2023-05-10T09:45:05;12.40;99.90
79049;DHT22;68680;50.764;6.120;2023-05-10T09:47:34;12.40;99.90
79049;DHT22;68680;50.764;6.120;2023-05-10T09:50:00;12.40;99.90
79049;DHT22;68680;50.764;6.120;2023-05-10T09:52:26;12.40;99.50
79049;DHT22;68680;50.764;6.120;2023-05-10T09:54:53;12.40;99.90
79049;DHT22;68680;50.764;6.120;2023-05-10T09:57:20;12.40;99.60
79049;DHT22;68680;50.764;6.120;2023-05-10T09:59:48;12.30;99.90
79049;DHT22;68680;50.764;6.120;2023-05-10T10:02:14;12.50;99.90
79049;DHT22;68680;50.764;6.120;2023-05-10T10:04:41;12.50;99.70
79049;DHT22;68680;50.764;6.120;2023-05-10T10:07:06;12.60;99.90
79049;DHT22;68680;50.764;6.120;2023-05-10T10:09:33;12.80;99.90
79049;DHT22;68680;50.764;6.120;2023-05-10T10:12:00;12.70;99.60
79049;DHT22;68680;50.764;6.120;2023-05-10T10:14:26;12.80;99.50
79049;DHT22;68680;50.764;6.120;2023-05-10T10:16:54;12.90;99.60
79049;DHT22;68680;50.764;6.120;2023-05-10T10:19:21;13.00;99.90
79049;DHT22;68680;50.764;6.120;2023-05-10T10:21:47;13.10;99.30
79049;DHT22;68680;50.764;6.120;2023-05-10T10:24:13;13.10;99.30
79049;DHT22;68680;50.764;6.120;2023-05-10T10:26:39;13.10;99.00
79049;DHT22;68680;50.764;6.120;2023-05-10T10:29:13;13.20;99.60
79049;DHT22;68680;50.764;6.120;2023-05-10T10:31:50;13.20;98.00
79049;DHT22;68680;50.764;6.120;2023-05-10T10:34:26;13.10;97.90
79049;DHT22;68680;50.764;6.120;2023-05-10T10:36:55;13.10;98.30
79049;DHT22;68680;50.764;6.120;2023-05-10T10:39:23;13.00;97.60
79049;DHT22;68680;50.764;6.120;2023-05-10T10:41:50;13.00;98.10
79049;DHT22;68680;50.764;6.120;2023-05-10T10:47:01;13.10;98.70
79049;DHT22;68680;50.764;6.120;2023-05-10T10:49:32;13.20;97.60
79049;DHT22;68680;50.764;6.120;2023-05-10T10:52:22;13.20;99.00
79049;DHT22;68680;50.764;6.120;2023-05-10T10:54:51;13.20;97.20
79049;DHT22;68680;50.764;6.120;2023-05-10T10:57:19;13.30;98.00
79049;DHT22;68680;50.764;6.120;2023-05-10T10:59:45;13.30;97.60
79049;DHT22;68680;50.764;6.120;2023-05-10T11:02:32;13.20;97.30
79049;DHT22;68680;50.764;6.120;2023-05-10T11:05:35;13.20;96.50
79049;DHT22;68680;50.764;6.120;2023-05-10T11:08:14;13.20;98.20
79049;DHT22;68680;50.764;6.120;2023-05-10T11:10:53;13.20;95.70
79049;DHT22;68680;50.764;6.120;2023-05-10T11:13:30;13.20;97.40
79049;DHT22;68680;50.764;6.120;2023-05-10T11:15:57;13.20;96.60
79049;DHT22;68680;50.764;6.120;2023-05-10T11:18:25;13.30;97.70
79049;DHT22;68680;50.764;6.120;2023-05-10T11:20:56;13.40;95.30
79049;DHT22;68680;50.764;6.120;2023-05-10T11:23:23;13.60;95.90
79049;DHT22;68680;50.764;6.120;2023-05-10T11:25:54;13.90;96.40
79049;DHT22;68680;50.764;6.120;2023-05-10T11:28:21;13.80;95.50
79049;DHT22;68680;50.764;6.120;2023-05-10T11:30:47;13.80;94.80
79049;DHT22;68680;50.764;6.120;2023-05-10T11:33:17;13.70;96.20
79049;DHT22;68680;50.764;6.120;2023-05-10T11:35:43;13.70;97.20
79049;DHT22;68680;50.764;6.120;2023-05-10T11:38:11;13.50;96.70
79049;DHT22;68680;50.764;6.120;2023-05-10T11:40:39;13.50;97.50
79049;DHT22;68680;50.764;6.120;2023-05-10T11:43:05;13.40;96.90
79049;DHT22;68680;50.764;6.120;2023-05-10T11:45:32;13.50;97.20
79049;DHT22;68680;50.764;6.120;2023-05-10T11:47:59;13.40;97.10
79049;DHT22;68680;50.764;6.120;2023-05-10T11:50:25;13.30;96.90
79049;DHT22;68680;50.764;6.120;2023-05-10T11:52:51;13.40;96.10
79049;DHT22;68680;50.764;6.120;2023-05-10T11:55:19;13.50;96.50
79049;DHT22;68680;50.764;6.120;2023-05-10T11:57:45;13.60;95.20
79049;DHT22;68680;50.764;6.120;2023-05-10T12:00:12;13.70;95.20
79049;DHT22;68680;50.764;6.120;2023-05-10T12:02:39;13.50;95.20
79049;DHT22;68680;50.764;6.120;2023-05-10T12:05:06;13.40;96.10
79049;DHT22;68680;50.764;6.120;2023-05-10T12:07:32;13.20;95.90
79049;DHT22;68680;50.764;6.120;2023-05-10T12:10:06;13.20;96.90
79049;DHT22;68680;50.764;6.120;2023-05-10T12:12:41;13.20;97.10
79049;DHT22;68680;50.764;6.120;2023-05-10T12:15:11;13.30;96.50
79049;DHT22;68680;50.764;6.120;2023-05-10T12:17:43;13.30;95.30
79049;DHT22;68680;50.764;6.120;2023-05-10T12:20:16;13.30;95.60
79049;DHT22;68680;50.764;6.120;2023-05-10T12:22:51;13.20;95.30
79049;DHT22;68680;50.764;6.120;2023-05-10T12:25:18;13.20;95.70
79049;DHT22;68680;50.764;6.120;2023-05-10T12:27:51;13.30;96.20
79049;DHT22;68680;50.764;6.120;2023-05-10T12:30:21;13.40;96.50
79049;DHT22;68680;50.764;6.120;2023-05-10T12:32:48;13.40;96.00
79049;DHT22;68680;50.764;6.120;2023-05-10T12:35:14;13.50;94.90
79049;DHT22;68680;50.764;6.120;2023-05-10T12:37:42;13.60;95.90
79049;DHT22;68680;50.764;6.120;2023-05-10T12:40:09;13.80;94.90
79049;DHT22;68680;50.764;6.120;2023-05-10T12:42:36;14.00;95.30
79049;DHT22;68680;50.764;6.120;2023-05-10T12:45:06;14.10;95.60
79049;DHT22;68680;50.764;6.120;2023-05-10T12:47:33;14.40;95.30
79049;DHT22;68680;50.764;6.120;2023-05-10T12:50:00;14.60;94.80
79049;DHT22;68680;50.764;6.120;2023-05-10T12:52:30;14.70;93.50
79049;DHT22;68680;50.764;6.120;2023-05-10T12:54:56;14.90;92.60
79049;DHT22;68680;50.764;6.120;2023-05-10T12:57:22;14.90;92.60
79049;DHT22;68680;50.764;6.120;2023-05-10T12:59:48;14.60;90.90
79049;DHT22;68680;50.764;6.120;2023-05-10T13:02:15;14.70;94.40
79049;DHT22;68680;50.764;6.120;2023-05-10T13:04:41;14.80;93.80
79049;DHT22;68680;50.764;6.120;2023-05-10T13:07:07;14.80;93.50
79049;DHT22;68680;50.764;6.120;2023-05-10T13:09:33;14.70;93.70
79049;DHT22;68680;50.764;6.120;2023-05-10T13:11:59;14.50;94.20
79049;DHT22;68680;50.764;6.120;2023-05-10T13:14:24;14.40;94.70
79049;DHT22;68680;50.764;6.120;2023-05-10T13:16:51;14.20;94.50
79049;DHT22;68680;50.764;6.120;2023-05-10T13:19:18;14.10;96.00
79049;DHT22;68680;50.764;6.120;2023-05-10T13:21:44;13.90;95.70
79049;DHT22;68680;50.764;6.120;2023-05-10T13:24:10;13.80;97.60
79049;DHT22;68680;50.764;6.120;2023-05-10T13:26:36;13.70;96.70
79049;DHT22;68680;50.764;6.120;2023-05-10T13:29:02;13.60;97.50
79049;DHT22;68680;50.764;6.120;2023-05-10T13:31:28;13.60;97.90
79049;DHT22;68680;50.764;6.120;2023-05-10T13:33:54;13.50;98.30
79049;DHT22;68680;50.764;6.120;2023-05-10T13:36:22;13.60;97.90
79049;DHT22;68680;50.764;6.120;2023-05-10T13:38:47;13.60;97.40
79049;DHT22;68680;50.764;6.120;2023-05-10T13:41:13;13.70;98.50
79049;DHT22;68680;50.764;6.120;2023-05-10T13:43:39;13.60;97.60
79049;DHT22;68680;50.764;6.120;2023-05-10T13:46:06;13.60;97.20
79049;DHT22;68680;50.764;6.120;2023-05-10T13:48:32;13.70;97.30
79049;DHT22;68680;50.764;6.120;2023-05-10T13:50:58;13.80;97.00
79049;DHT22;68680;50.764;6.120;2023-05-10T13:53:25;13.90;96.70
79049;DHT22;68680;50.764;6.120;2023-05-10T13:55:51;14.10;96.30
79049;DHT22;68680;50.764;6.120;2023-05-10T13:58:17;14.20;96.70
79049;DHT22;68680;50.764;6.120;2023-05-10T14:00:42;14.30;95.60
79049;DHT22;68680;50.764;6.120;2023-05-10T14:03:09;14.60;95.90
79049;DHT22;68680;50.764;6.120;2023-05-10T14:05:34;14.60;93.50
79049;DHT22;68680;50.764;6.120;2023-05-10T14:08:00;14.40;94.20
79049;DHT22;68680;50.764;6.120;2023-05-10T14:10:27;14.30;94.80
79049;DHT22;68680;50.764;6.120;2023-05-10T14:12:53;14.20;96.30
79049;DHT22;68680;50.764;6.120;2023-05-10T14:15:19;14.20;96.90
79049;DHT22;68680;50.764;6.120;2023-05-10T14:17:45;14.00;96.70
79049;DHT22;68680;50.764;6.120;2023-05-10T14:20:11;14.00;97.20
79049;DHT22;68680;50.764;6.120;2023-05-10T14:22:37;13.90;97.10
79049;DHT22;68680;50.764;6.120;2023-05-10T14:25:03;13.70;97.10
79049;DHT22;68680;50.764;6.120;2023-05-10T14:27:31;13.60;97.90
79049;DHT22;68680;50.764;6.120;2023-05-10T14:29:57;13.40;98.20
79049;DHT22;68680;50.764;6.120;2023-05-10T14:32:23;13.30;99.10
79049;DHT22;68680;50.764;6.120;2023-05-10T14:34:49;13.10;99.30
79049;DHT22;68680;50.764;6.120;2023-05-10T14:37:14;13.10;99.80
79049;DHT22;68680;50.764;6.120;2023-05-10T14:39:40;13.00;99.90
79049;DHT22;68680;50.764;6.120;2023-05-10T14:42:06;12.90;99.90
79049;DHT22;68680;50.764;6.120;2023-05-10T14:44:33;12.90;99.90
79049;DHT22;68680;50.764;6.120;2023-05-10T14:46:59;12.80;99.90
79049;DHT22;68680;50.764;6.120;2023-05-10T14:49:24;12.80;99.90
79049;DHT22;68680;50.764;6.120;2023-05-10T14:51:50;12.80;99.90
79049;DHT22;68680;50.764;6.120;2023-05-10T14:54:16;12.80;99.90
79049;DHT22;68680;50.764;6.120;2023-05-10T14:56:42;12.80;99.90
79049;DHT22;68680;50.764;6.120;2023-05-10T14:59:08;12.80;99.90
79049;DHT22;68680;50.764;6.120;2023-05-10T15:01:35;12.90;99.90
79049;DHT22;68680;50.764;6.120;2023-05-10T15:04:00;12.90;99.90
79049;DHT22;68680;50.764;6.120;2023-05-10T15:06:30;12.80;99.90
79049;DHT22;68680;50.764;6.120;2023-05-10T15:08:57;12.90;99.90
79049;DHT22;68680;50.764;6.120;2023-05-10T15:11:22;12.90;99.90
79049;DHT22;68680;50.764;6.120;2023-05-10T15:13:48;12.90;99.90
79049;DHT22;68680;50.764;6.120;2023-05-10T15:16:14;12.90;99.90
79049;DHT22;68680;50.764;6.120;2023-05-10T15:18:41;12.90;99.90
79049;DHT22;68680;50.764;6.120;2023-05-10T15:21:07;12.80;99.90
79049;DHT22;68680;50.764;6.120;2023-05-10T15:23:33;12.80;99.90
79049;DHT22;68680;50.764;6.120;2023-05-10T15:25:59;12.80;99.90
79049;DHT22;68680;50.764;6.120;2023-05-10T15:28:25;12.70;99.90
79049;DHT22;68680;50.764;6.120;2023-05-10T15:30:51;12.70;99.90
79049;DHT22;68680;50.764;6.120;2023-05-10T15:33:17;12.80;99.90
79049;DHT22;68680;50.764;6.120;2023-05-10T15:35:44;12.90;99.90
79049;DHT22;68680;50.764;6.120;2023-05-10T15:38:10;13.00;99.90